createdAt,value
2023-01-13T00:01:11.392Z,78.40
2023-01-13T00:03:39.800Z,78.20
2023-01-13T00:06:08.802Z,78.30
2023-01-13T00:08:36.974Z,78.40
2023-01-13T00:11:05.129Z,78.40
2023-01-13T00:13:35.490Z,78.40
2023-01-13T00:16:06.130Z,78.30
2023-01-13T00:18:34.422Z,78.30
2023-01-13T00:21:03.102Z,78.20
2023-01-13T00:23:34.077Z,78.20
2023-01-13T00:26:04.072Z,78.20
2023-01-13T00:28:32.383Z,78.10
2023-01-13T00:31:08.598Z,78.00
2023-01-13T00:33:37.520Z,78.00
2023-01-13T00:36:07.485Z,78.00
2023-01-13T00:38:37.909Z,77.90
2023-01-13T00:41:08.455Z,77.80
2023-01-13T00:43:36.912Z,77.80
2023-01-13T00:46:07.785Z,77.80
2023-01-13T00:48:36.308Z,77.70
2023-01-13T00:51:06.374Z,77.70
2023-01-13T00:53:36.253Z,77.60
2023-01-13T00:56:06.861Z,77.60
2023-01-13T00:58:36.402Z,77.50
2023-01-13T01:01:07.734Z,77.50
2023-01-13T01:03:36.832Z,77.40
2023-01-13T01:06:07.840Z,77.50
2023-01-13T01:08:36.444Z,77.50
2023-01-13T01:11:06.171Z,77.50
2023-01-13T01:13:34.384Z,77.50
2023-01-13T01:16:09.022Z,77.50
2023-01-13T01:18:38.375Z,77.50
2023-01-13T01:21:09.009Z,77.50
2023-01-13T01:23:38.343Z,77.40
2023-01-13T01:26:09.721Z,77.30
2023-01-13T01:28:38.020Z,77.40
2023-01-13T01:31:10.177Z,77.30
2023-01-13T01:33:38.395Z,77.50
2023-01-13T01:36:07.045Z,77.40
2023-01-13T01:38:35.214Z,77.50
2023-01-13T01:41:03.445Z,77.40
2023-01-13T01:44:02.521Z,77.50
2023-01-13T01:46:34.089Z,77.50
2023-01-13T01:49:08.535Z,77.50
2023-01-13T01:51:39.947Z,77.50
2023-01-13T01:54:10.980Z,77.50
2023-01-13T01:56:40.848Z,77.50
2023-01-13T01:59:09.190Z,77.50
2023-01-13T02:01:41.528Z,77.50
2023-01-13T02:04:14.921Z,77.70
2023-01-13T02:06:44.208Z,77.50
2023-01-13T02:09:13.570Z,77.50
2023-01-13T02:11:58.981Z,77.50
2023-01-13T02:14:30.217Z,77.50
2023-01-13T02:17:17.223Z,77.50
2023-01-13T02:20:26.446Z,77.50
2023-01-13T02:23:33.405Z,77.50
2023-01-13T02:26:20.617Z,77.50
2023-01-13T02:29:25.207Z,77.50
2023-01-13T02:32:00.992Z,77.50
2023-01-13T02:34:38.629Z,77.50
2023-01-13T02:37:12.712Z,77.50
2023-01-13T02:39:50.008Z,77.50
2023-01-13T02:42:53.596Z,77.50
2023-01-13T02:45:28.038Z,77.50
2023-01-13T02:48:00.183Z,77.60
2023-01-13T02:50:33.532Z,77.60
2023-01-13T02:53:06.600Z,77.60
2023-01-13T02:55:38.988Z,77.70
2023-01-13T02:58:10.453Z,77.60
2023-01-13T03:00:39.116Z,77.50
2023-01-13T03:03:08.677Z,77.50
2023-01-13T03:05:37.445Z,77.50
2023-01-13T03:08:28.218Z,77.50
2023-01-13T03:11:04.877Z,77.60
2023-01-13T03:13:57.617Z,77.50
2023-01-13T03:16:38.480Z,77.50
2023-01-13T03:19:17.078Z,77.50
2023-01-13T03:21:53.375Z,77.50
2023-01-13T03:24:26.775Z,77.50
2023-01-13T03:27:02.478Z,77.50
2023-01-13T03:29:36.289Z,77.50
2023-01-13T03:32:09.439Z,77.50
2023-01-13T03:34:45.962Z,77.50
2023-01-13T03:37:17.425Z,77.50
2023-01-13T03:39:48.931Z,77.50
2023-01-13T03:42:21.136Z,77.50
2023-01-13T03:44:54.933Z,77.50
2023-01-13T03:47:29.028Z,77.60
2023-01-13T03:50:05.487Z,77.60
2023-01-13T03:52:38.245Z,77.60
2023-01-13T03:55:10.965Z,77.70
2023-01-13T03:57:46.174Z,77.80
2023-01-13T04:00:15.655Z,77.80
2023-01-13T04:02:54.518Z,77.80
2023-01-13T04:05:24.731Z,77.80
2023-01-13T04:08:01.233Z,77.70
2023-01-13T04:10:32.548Z,78.10
2023-01-13T04:13:04.991Z,78.10
2023-01-13T04:15:36.205Z,77.90
2023-01-13T04:18:12.588Z,77.50
2023-01-13T04:20:43.512Z,76.60
2023-01-13T04:23:13.550Z,76.20
2023-01-13T04:25:42.061Z,76.20
2023-01-13T04:28:10.710Z,75.80
2023-01-13T04:30:39.352Z,75.10
2023-01-13T04:33:08.082Z,74.80
2023-01-13T04:35:36.991Z,74.40
2023-01-13T04:38:08.192Z,74.40
2023-01-13T04:40:36.560Z,74.80
2023-01-13T04:43:05.459Z,74.80
2023-01-13T04:45:33.906Z,74.90
2023-01-13T04:48:02.194Z,74.70
2023-01-13T04:50:30.774Z,74.70
2023-01-13T04:53:00.444Z,74.90
2023-01-13T04:55:31.778Z,75.00
2023-01-13T04:58:04.164Z,74.90
2023-01-13T05:00:32.334Z,75.10
2023-01-13T05:03:00.624Z,75.10
2023-01-13T05:05:29.438Z,75.20
2023-01-13T05:07:57.969Z,74.70
2023-01-13T05:10:26.435Z,73.50
2023-01-13T05:13:13.103Z,73.60
2023-01-13T05:15:59.105Z,73.50
2023-01-13T05:18:28.201Z,73.70
2023-01-13T05:20:56.431Z,73.20
2023-01-13T05:23:41.828Z,73.20
2023-01-13T05:26:10.079Z,73.40
2023-01-13T05:28:39.619Z,73.50
2023-01-13T05:31:08.005Z,73.70
2023-01-13T05:33:36.765Z,73.80
2023-01-13T05:36:05.871Z,73.80
2023-01-13T05:38:34.033Z,73.90
2023-01-13T05:41:19.716Z,74.00
2023-01-13T05:43:49.214Z,74.00
2023-01-13T05:46:17.781Z,74.00
2023-01-13T05:48:46.043Z,74.20
2023-01-13T05:51:14.897Z,74.80
2023-01-13T05:53:43.089Z,74.30
2023-01-13T05:56:11.969Z,74.20
2023-01-13T05:58:40.321Z,74.10
2023-01-13T06:01:10.805Z,74.10
2023-01-13T06:03:39.415Z,74.30
2023-01-13T06:06:09.071Z,74.30
2023-01-13T06:08:39.577Z,74.50
2023-01-13T06:11:08.288Z,74.40
2023-01-13T06:13:36.484Z,74.30
2023-01-13T06:16:04.895Z,74.30
2023-01-13T06:18:34.454Z,74.20
2023-01-13T06:21:02.581Z,74.30
2023-01-13T06:23:35.000Z,74.30
2023-01-13T06:26:09.408Z,74.30
2023-01-13T06:28:37.583Z,74.40
2023-01-13T06:31:08.228Z,74.40
2023-01-13T06:33:40.205Z,74.20
2023-01-13T06:36:11.127Z,74.10
2023-01-13T06:38:42.788Z,74.30
2023-01-13T06:41:11.049Z,74.00
2023-01-13T06:43:39.146Z,74.10
2023-01-13T06:46:07.541Z,74.00
2023-01-13T06:48:37.565Z,74.20
2023-01-13T06:51:06.529Z,74.20
2023-01-13T06:53:34.671Z,74.20
2023-01-13T06:56:02.829Z,74.30
2023-01-13T06:58:31.000Z,74.30
2023-01-13T07:01:01.837Z,74.20
2023-01-13T07:03:30.090Z,74.20
2023-01-13T07:06:00.461Z,74.20
2023-01-13T07:08:28.653Z,74.10
2023-01-13T07:10:56.777Z,74.10
2023-01-13T07:13:42.871Z,74.20
2023-01-13T07:16:11.116Z,74.30
2023-01-13T07:18:39.676Z,74.50
2023-01-13T07:21:10.548Z,74.30
2023-01-13T07:23:40.637Z,74.20
2023-01-13T07:26:10.303Z,74.20
2023-01-13T07:28:39.230Z,74.20
2023-01-13T07:31:14.411Z,74.20
2023-01-13T07:33:42.614Z,74.10
2023-01-13T07:36:12.519Z,74.00
2023-01-13T07:38:41.097Z,73.90
2023-01-13T07:41:26.589Z,73.80
2023-01-13T07:43:54.726Z,73.80
2023-01-13T07:46:22.842Z,73.60
2023-01-13T07:48:51.030Z,73.50
2023-01-13T07:51:20.575Z,73.40
2023-01-13T07:53:48.985Z,73.30
2023-01-13T07:56:17.513Z,73.30
2023-01-13T07:58:50.318Z,73.20
2023-01-13T08:01:19.700Z,73.20
2023-01-13T08:03:47.977Z,73.40
2023-01-13T08:06:16.160Z,73.40
2023-01-13T08:08:45.742Z,73.40
2023-01-13T08:11:13.897Z,73.50
2023-01-13T08:13:42.144Z,73.60
2023-01-13T08:16:12.674Z,73.60
2023-01-13T08:18:41.459Z,73.70
2023-01-13T08:21:11.225Z,73.70
2023-01-13T08:23:39.976Z,73.50
2023-01-13T08:26:11.569Z,73.30
2023-01-13T08:28:41.370Z,73.10
2023-01-13T08:31:12.625Z,73.00
2023-01-13T08:33:41.377Z,73.30
2023-01-13T08:36:12.399Z,73.10
2023-01-13T08:38:41.641Z,73.20
2023-01-13T08:41:12.638Z,73.10
2023-01-13T08:43:40.877Z,73.10
2023-01-13T08:46:09.316Z,73.20
2023-01-13T08:48:37.608Z,73.20
2023-01-13T08:51:07.545Z,73.20
2023-01-13T08:53:35.751Z,72.80
2023-01-13T08:56:10.894Z,72.70
2023-01-13T08:58:40.967Z,72.40
2023-01-13T09:01:10.172Z,72.30
2023-01-13T09:03:39.134Z,72.30
2023-01-13T09:06:07.718Z,72.20
2023-01-13T09:08:35.982Z,71.90
2023-01-13T09:11:24.217Z,71.80
2023-01-13T09:13:52.797Z,71.60
2023-01-13T09:16:20.986Z,71.70
2023-01-13T09:18:49.296Z,71.60
2023-01-13T09:21:19.789Z,71.90
2023-01-13T09:23:48.164Z,71.90
2023-01-13T09:26:21.257Z,72.00
2023-01-13T09:28:49.537Z,72.00
2023-01-13T09:31:19.173Z,72.00
2023-01-13T09:34:05.036Z,71.80
2023-01-13T09:36:33.239Z,71.90
2023-01-13T09:39:01.397Z,71.80
2023-01-13T09:41:48.995Z,71.80
2023-01-13T09:44:20.832Z,71.60
2023-01-13T09:46:54.562Z,71.20
2023-01-13T09:49:25.998Z,71.00
2023-01-13T09:51:59.589Z,70.70
2023-01-13T09:54:34.889Z,70.20
2023-01-13T09:57:03.127Z,70.00
2023-01-13T09:59:36.482Z,69.60
2023-01-13T10:02:24.305Z,69.10
2023-01-13T10:05:13.512Z,68.90
2023-01-13T10:07:49.271Z,68.30
2023-01-13T10:10:31.699Z,68.30
2023-01-13T10:13:17.239Z,68.10
2023-01-13T10:16:04.008Z,68.40
2023-01-13T10:18:44.645Z,68.30
2023-01-13T10:21:26.371Z,68.00
2023-01-13T10:24:02.938Z,68.00
2023-01-13T10:26:45.526Z,67.60
2023-01-13T10:29:21.797Z,67.70
2023-01-13T10:31:49.921Z,67.60
2023-01-13T10:34:20.572Z,67.70
2023-01-13T10:37:06.226Z,67.80
2023-01-13T10:39:42.791Z,67.90
2023-01-13T10:42:15.100Z,67.10
2023-01-13T10:44:51.255Z,67.50
2023-01-13T10:47:26.029Z,67.20
2023-01-13T10:50:17.899Z,66.90
2023-01-13T10:52:59.095Z,66.50
2023-01-13T10:55:30.325Z,66.10
2023-01-13T10:57:58.779Z,66.40
2023-01-13T11:00:32.763Z,65.80
2023-01-13T11:03:18.761Z,65.90
2023-01-13T11:05:53.683Z,65.20
2023-01-13T11:08:24.163Z,65.60
2023-01-13T11:10:55.011Z,66.00
2023-01-13T11:13:29.470Z,66.20
2023-01-13T11:16:02.798Z,65.80
2023-01-13T11:18:41.593Z,65.30
2023-01-13T11:21:18.544Z,65.20
2023-01-13T11:23:51.514Z,64.80
2023-01-13T11:26:24.967Z,64.80
2023-01-13T11:29:01.998Z,64.60
2023-01-13T11:31:35.678Z,64.90
2023-01-13T11:34:12.583Z,64.80
2023-01-13T11:36:46.923Z,64.60
2023-01-13T11:39:22.311Z,64.40
2023-01-13T11:42:11.216Z,64.10
2023-01-13T11:44:44.585Z,64.00
2023-01-13T11:47:14.438Z,64.50
2023-01-13T11:49:48.544Z,63.90
2023-01-13T11:52:24.509Z,63.90
2023-01-13T11:55:24.378Z,62.90
2023-01-13T11:58:29.059Z,62.80
2023-01-13T12:01:10.137Z,62.70
2023-01-13T12:03:42.523Z,62.80
2023-01-13T12:06:20.980Z,62.30
2023-01-13T12:09:17.259Z,63.00
2023-01-13T12:12:15.045Z,62.90
2023-01-13T12:14:57.371Z,63.00
2023-01-13T12:17:32.507Z,63.80
2023-01-13T12:20:15.852Z,63.00
2023-01-13T12:22:47.313Z,62.80
2023-01-13T12:25:22.582Z,62.80
2023-01-13T12:27:59.373Z,62.60
2023-01-13T12:30:37.052Z,62.30
2023-01-13T12:33:18.762Z,62.20
2023-01-13T12:35:55.876Z,62.50
2023-01-13T12:38:34.498Z,62.10
2023-01-13T12:41:13.960Z,61.90
2023-01-13T12:44:13.258Z,62.10
2023-01-13T12:46:53.422Z,61.20
2023-01-13T12:49:24.152Z,61.60
2023-01-13T12:52:23.367Z,62.00
2023-01-13T12:55:25.197Z,61.60
2023-01-13T12:58:16.396Z,61.70
2023-01-13T13:01:11.740Z,62.00
2023-01-13T13:03:40.226Z,61.90
2023-01-13T13:06:14.981Z,62.10
2023-01-13T13:08:53.912Z,62.00
2023-01-13T13:11:52.636Z,62.20
2023-01-13T13:14:54.148Z,62.60
2023-01-13T13:17:45.963Z,62.50
2023-01-13T13:20:55.060Z,62.60
2023-01-13T13:23:47.947Z,62.60
2023-01-13T13:26:40.035Z,62.70
2023-01-13T13:29:24.285Z,61.90
2023-01-13T13:32:22.623Z,62.00
2023-01-13T13:35:02.315Z,61.50
2023-01-13T13:37:56.367Z,62.00
2023-01-13T13:40:42.930Z,61.80
2023-01-13T13:43:32.369Z,62.00
2023-01-13T13:46:18.028Z,61.80
2023-01-13T13:48:53.930Z,61.70
2023-01-13T13:51:28.294Z,61.30
2023-01-13T13:53:59.323Z,61.20
2023-01-13T13:56:30.327Z,62.00
2023-01-13T13:58:58.544Z,62.60
2023-01-13T14:01:30.196Z,62.70
2023-01-13T14:04:07.994Z,62.70
2023-01-13T14:06:37.591Z,63.00
2023-01-13T14:09:05.702Z,63.00
2023-01-13T14:11:36.066Z,62.90
2023-01-13T14:14:06.150Z,63.20
2023-01-13T14:16:36.405Z,63.40
2023-01-13T14:19:05.170Z,63.60
2023-01-13T14:21:33.895Z,63.90
2023-01-13T14:24:12.989Z,64.10
2023-01-13T14:26:41.397Z,64.20
2023-01-13T14:29:18.025Z,64.20
2023-01-13T14:31:47.754Z,64.10
2023-01-13T14:34:32.279Z,64.10
2023-01-13T14:37:01.368Z,63.70
2023-01-13T14:39:38.977Z,63.80
2023-01-13T14:42:14.271Z,63.30
2023-01-13T14:44:46.816Z,63.20
2023-01-13T14:47:22.968Z,63.10
2023-01-13T14:50:02.576Z,63.20
2023-01-13T14:52:32.587Z,63.00
2023-01-13T14:55:29.065Z,63.10
2023-01-13T14:58:18.738Z,62.70
2023-01-13T15:00:47.132Z,62.90
2023-01-13T15:03:16.910Z,63.00
2023-01-13T15:05:50.655Z,63.00
2023-01-13T15:08:38.640Z,62.80
2023-01-13T15:11:19.318Z,62.70
2023-01-13T15:13:53.585Z,62.80
2023-01-13T15:16:24.964Z,62.60
2023-01-13T15:18:53.823Z,62.70
2023-01-13T15:21:23.160Z,63.00
2023-01-13T15:23:51.462Z,63.10
2023-01-13T15:26:24.148Z,63.60
2023-01-13T15:28:53.497Z,63.70
2023-01-13T15:31:22.703Z,63.70
2023-01-13T15:33:51.155Z,63.90
2023-01-13T15:36:23.957Z,64.20
2023-01-13T15:38:52.253Z,64.10
2023-01-13T15:41:42.901Z,64.30
2023-01-13T15:44:32.997Z,64.50
2023-01-13T15:47:04.122Z,64.70
2023-01-13T15:49:36.331Z,64.70
2023-01-13T15:52:05.870Z,64.80
2023-01-13T15:54:34.021Z,64.70
2023-01-13T15:57:03.653Z,64.80
2023-01-13T15:59:31.781Z,64.80
2023-01-13T16:01:59.951Z,64.70
2023-01-13T16:04:28.086Z,64.80
2023-01-13T16:06:56.375Z,65.20
2023-01-13T16:09:24.517Z,65.10
2023-01-13T16:11:52.741Z,65.00
2023-01-13T16:14:22.308Z,65.10
2023-01-13T16:16:51.762Z,64.90
2023-01-13T16:19:19.910Z,64.80
2023-01-13T16:21:48.066Z,64.80
2023-01-13T16:24:16.221Z,65.00
2023-01-13T16:26:44.453Z,65.50
2023-01-13T16:29:13.057Z,66.20
2023-01-13T16:31:42.676Z,66.80
2023-01-13T16:34:10.858Z,67.20
2023-01-13T16:36:39.078Z,67.60
2023-01-13T16:39:20.631Z,67.40
2023-01-13T16:41:48.956Z,67.70
2023-01-13T16:44:17.168Z,68.00
2023-01-13T16:46:47.686Z,68.90
2023-01-13T16:49:17.171Z,69.50
2023-01-13T16:51:45.368Z,69.60
2023-01-13T16:54:13.534Z,70.00
2023-01-13T16:56:41.863Z,69.90
2023-01-13T16:59:13.625Z,70.20
2023-01-13T17:01:44.991Z,70.20
2023-01-13T17:04:18.614Z,70.20
2023-01-13T17:06:53.375Z,70.40
2023-01-13T17:09:23.578Z,70.60
2023-01-13T17:11:52.703Z,70.70
2023-01-13T17:14:23.281Z,70.80
2023-01-13T17:16:53.409Z,71.00
2023-01-13T17:19:25.613Z,71.00
2023-01-13T17:21:53.874Z,71.00
2023-01-13T17:24:24.746Z,71.30
2023-01-13T17:26:52.989Z,71.30
2023-01-13T17:29:22.965Z,71.40
2023-01-13T17:31:51.713Z,71.60
2023-01-13T17:34:21.330Z,71.60
2023-01-13T17:36:51.286Z,71.80
2023-01-13T17:39:21.061Z,71.70
2023-01-13T17:41:50.499Z,71.60
2023-01-13T17:44:20.465Z,71.50
2023-01-13T17:46:49.787Z,71.50
2023-01-13T17:49:21.752Z,71.40
2023-01-13T17:51:51.494Z,71.20
2023-01-13T17:54:20.399Z,71.10
2023-01-13T17:56:48.635Z,70.70
2023-01-13T17:59:18.475Z,70.60
2023-01-13T18:01:47.298Z,70.50
2023-01-13T18:04:16.525Z,70.50
2023-01-13T18:06:45.040Z,70.50
2023-01-13T18:09:14.648Z,70.40
2023-01-13T18:11:43.459Z,70.20
2023-01-13T18:14:12.374Z,73.90
2023-01-13T18:16:40.765Z,73.60
2023-01-13T18:19:26.658Z,72.60
2023-01-13T18:22:12.289Z,71.60
2023-01-13T18:24:59.407Z,70.10
2023-01-13T18:27:31.071Z,68.60
2023-01-13T18:30:00.852Z,67.20
2023-01-13T18:32:33.179Z,65.90
2023-01-13T18:35:06.403Z,64.50
2023-01-13T18:37:38.787Z,64.00
2023-01-13T18:40:10.923Z,63.70
2023-01-13T18:42:54.971Z,63.30
2023-01-13T18:45:25.533Z,63.40
2023-01-13T18:47:55.206Z,63.70
2023-01-13T18:50:23.686Z,64.20
2023-01-13T18:52:52.420Z,64.50
2023-01-13T18:55:22.403Z,64.70
2023-01-13T18:57:51.231Z,65.00
2023-01-13T19:00:21.591Z,65.30
2023-01-13T19:05:35.855Z,66.00
2023-01-13T19:08:04.670Z,66.30
2023-01-13T19:10:34.300Z,67.20
2023-01-13T19:13:02.703Z,66.90
2023-01-13T19:15:31.282Z,67.60
2023-01-13T19:17:59.533Z,68.20
2023-01-13T19:20:27.707Z,68.60
2023-01-13T19:22:55.857Z,68.90
2023-01-13T19:25:24.064Z,69.10
2023-01-13T19:27:53.598Z,69.50
2023-01-13T19:30:21.844Z,69.90
2023-01-13T19:32:50.018Z,70.30
2023-01-13T19:35:19.939Z,70.40
2023-01-13T19:37:48.140Z,70.70
2023-01-13T19:40:16.780Z,70.50
2023-01-13T19:43:02.515Z,70.50
2023-01-13T19:45:35.108Z,70.60
2023-01-13T19:48:05.441Z,70.60
2023-01-13T19:50:38.509Z,70.60
2023-01-13T19:53:06.806Z,70.70
2023-01-13T19:55:35.135Z,70.70
2023-01-13T19:58:03.873Z,70.70
2023-01-13T20:00:34.296Z,70.70
2023-01-13T20:03:06.972Z,70.70
2023-01-13T20:05:35.195Z,70.70
2023-01-13T20:08:03.350Z,70.50
2023-01-13T20:10:31.548Z,70.50
2023-01-13T20:12:59.732Z,70.60
2023-01-13T20:15:27.985Z,70.50
2023-01-13T20:17:58.683Z,70.40
2023-01-13T20:20:27.463Z,70.30
2023-01-13T20:22:55.686Z,70.20
2023-01-13T20:25:23.925Z,70.10
2023-01-13T20:27:52.913Z,70.10
2023-01-13T20:30:21.233Z,70.10
2023-01-13T20:32:49.622Z,70.20
2023-01-13T20:35:19.340Z,70.20
2023-01-13T20:37:47.479Z,70.10
2023-01-13T20:40:18.383Z,69.90
2023-01-13T20:42:46.435Z,69.60
2023-01-13T20:45:17.561Z,69.60
2023-01-13T20:47:46.447Z,69.40
2023-01-13T20:50:15.029Z,69.30
2023-01-13T20:52:44.631Z,69.20
2023-01-13T20:55:13.469Z,69.00
2023-01-13T20:57:41.820Z,69.10
2023-01-13T21:00:11.607Z,68.70
2023-01-13T21:02:41.707Z,68.60
2023-01-13T21:05:10.196Z,68.60
2023-01-13T21:07:38.383Z,68.50
2023-01-13T21:10:11.315Z,68.50
2023-01-13T21:12:57.282Z,68.20
2023-01-13T21:15:25.889Z,68.30
2023-01-13T21:18:11.324Z,68.40
2023-01-13T21:20:40.250Z,68.30
2023-01-13T21:23:10.712Z,68.30
2023-01-13T21:25:40.619Z,68.40
2023-01-13T21:28:11.901Z,68.60
2023-01-13T21:30:40.782Z,68.80
2023-01-13T21:33:09.310Z,68.90
2023-01-13T21:35:39.574Z,68.90
2023-01-13T21:38:07.834Z,68.90
2023-01-13T21:40:35.985Z,69.00
2023-01-13T21:43:23.103Z,69.10
2023-01-13T21:46:07.895Z,69.20
2023-01-13T21:48:36.066Z,69.20
2023-01-13T21:51:04.241Z,69.20
2023-01-13T21:53:32.477Z,69.20
2023-01-13T21:56:00.630Z,69.20
2023-01-13T21:58:30.186Z,69.30
2023-01-13T22:01:03.944Z,69.30
2023-01-13T22:03:52.907Z,69.20
2023-01-13T22:06:21.177Z,69.30
2023-01-13T22:08:49.281Z,69.20
2023-01-13T22:11:17.560Z,69.20
2023-01-13T22:14:04.553Z,69.20
2023-01-13T22:16:33.987Z,69.10
2023-01-13T22:19:02.189Z,69.00
2023-01-13T22:21:30.480Z,69.00
2023-01-13T22:23:59.268Z,68.90
2023-01-13T22:26:27.715Z,69.00
2023-01-13T22:28:57.305Z,68.90
2023-01-13T22:31:26.223Z,68.80
2023-01-13T22:33:55.089Z,68.60
2023-01-13T22:36:23.997Z,68.50
2023-01-13T22:38:55.748Z,68.50
2023-01-13T22:41:24.816Z,68.40
2023-01-13T22:43:57.394Z,68.30
2023-01-13T22:46:26.992Z,68.40
2023-01-13T22:48:55.921Z,68.30
2023-01-13T22:51:25.155Z,68.30
2023-01-13T22:53:53.404Z,68.30
2023-01-13T22:56:22.841Z,68.30
2023-01-13T22:58:54.696Z,68.30
2023-01-13T23:01:23.046Z,68.30
2023-01-13T23:03:52.680Z,68.40
2023-01-13T23:06:22.353Z,68.20
2023-01-13T23:08:51.074Z,68.20
2023-01-13T23:11:20.866Z,68.30
2023-01-13T23:13:49.061Z,68.20
2023-01-13T23:16:19.499Z,68.10
2023-01-13T23:18:48.696Z,68.20
2023-01-13T23:21:19.677Z,68.20
2023-01-13T23:23:48.357Z,68.20
2023-01-13T23:26:17.574Z,68.20
2023-01-13T23:28:46.047Z,68.10
2023-01-13T23:31:16.559Z,68.00
2023-01-13T23:33:45.238Z,68.10
2023-01-13T23:36:15.606Z,68.00
2023-01-13T23:38:45.604Z,68.10
2023-01-13T23:41:19.634Z,68.00
2023-01-13T23:43:52.613Z,67.90
2023-01-13T23:46:22.124Z,68.00
2023-01-13T23:48:51.023Z,68.00
2023-01-13T23:51:21.234Z,68.00
2023-01-13T23:53:51.728Z,67.90
2023-01-13T23:56:22.531Z,67.80
2023-01-13T23:58:51.012Z,67.70
